sensor_id;sensor_type;location;lat;lon;timestamp;pressure;altitude;pressure_sealevel;temperature;humidity
34454;BME280;60061;52.080;5.312;2022-11-27T00:01:09;102425.0;;;7.67;100.0
34454;BME280;60061;52.080;5.312;2022-11-27T00:02:45;102421.0;;;7.52;100.0
34454;BME280;60061;52.080;5.312;2022-11-27T00:05:58;102416.00000000001;;;7.68;100.0
34454;BME280;60061;52.080;5.312;2022-11-27T00:07:34;102417.0;;;7.64;100.0
34454;BME280;60061;52.080;5.312;2022-11-27T00:09:11;102407.0;;;7.5;100.0
34454;BME280;60061;52.080;5.312;2022-11-27T00:12:26;102405.0;;;7.22;100.0
34454;BME280;60061;52.080;5.312;2022-11-27T00:14:02;102398.0;;;7.27;100.0
34454;BME280;60061;52.080;5.312;2022-11-27T00:15:38;102393.0;;;7.45;100.0
34454;BME280;60061;52.080;5.312;2022-11-27T00:17:15;102390.0;;;7.45;100.0
34454;BME280;60061;52.080;5.312;2022-11-27T00:20:27;102388.0;;;7.56;100.0
34454;BME280;60061;52.080;5.312;2022-11-27T00:22:03;102391.0;;;7.3;100.0
34454;BME280;60061;52.080;5.312;2022-11-27T00:23:40;102390.0;;;7.34;100.0
34454;BME280;60061;52.080;5.312;2022-11-27T00:26:53;102374.0;;;7.3;100.0
34454;BME280;60061;52.080;5.312;2022-11-27T00:28:29;102368.0;;;7.37;100.0
34454;BME280;60061;52.080;5.312;2022-11-27T00:30:07;102371.0;;;7.48;100.0
34454;BME280;60061;52.080;5.312;2022-11-27T00:33:20;102366.0;;;7.48;100.0
34454;BME280;60061;52.080;5.312;2022-11-27T00:34:56;102360.0;;;7.52;100.0
34454;BME280;60061;52.080;5.312;2022-11-27T00:36:33;102365.0;;;7.47;100.0
34454;BME280;60061;52.080;5.312;2022-11-27T00:38:10;102369.0;;;7.43;100.0
34454;BME280;60061;52.080;5.312;2022-11-27T00:41:26;102370.0;;;7.55;100.0
34454;BME280;60061;52.080;5.312;2022-11-27T00:43:03;102369.0;;;7.39;100.0
34454;BME280;60061;52.080;5.312;2022-11-27T00:44:39;102371.0;;;7.33;100.0
34454;BME280;60061;52.080;5.312;2022-11-27T00:47:53;102369.0;;;7.25;100.0
34454;BME280;60061;52.080;5.312;2022-11-27T00:49:31;102365.0;;;7.25;100.0
34454;BME280;60061;52.080;5.312;2022-11-27T00:51:09;102367.0;;;7.3;100.0
34454;BME280;60061;52.080;5.312;2022-11-27T00:54:23;102365.0;;;7.42;100.0
34454;BME280;60061;52.080;5.312;2022-11-27T00:56:00;102366.0;;;7.16;100.0
34454;BME280;60061;52.080;5.312;2022-11-27T00:57:36;102355.0;;;7.14;100.0
34454;BME280;60061;52.080;5.312;2022-11-27T00:59:14;102353.0;;;7.16;100.0
34454;BME280;60061;52.080;5.312;2022-11-27T01:02:30;102353.0;;;7.29;100.0
34454;BME280;60061;52.080;5.312;2022-11-27T01:04:09;102353.0;;;7.15;100.0
34454;BME280;60061;52.080;5.312;2022-11-27T01:05:47;102356.0;;;6.99;100.0
34454;BME280;60061;52.080;5.312;2022-11-27T01:09:02;102355.0;;;6.94;100.0
34454;BME280;60061;52.080;5.312;2022-11-27T01:10:47;102352.0;;;6.96;100.0
34454;BME280;60061;52.080;5.312;2022-11-27T01:12:23;102348.0;;;7.07;100.0
34454;BME280;60061;52.080;5.312;2022-11-27T01:14:02;102347.0;;;7.12;100.0
34454;BME280;60061;52.080;5.312;2022-11-27T01:17:15;102347.0;;;7.22;100.0
34454;BME280;60061;52.080;5.312;2022-11-27T01:18:53;102335.0;;;7.03;100.0
34454;BME280;60061;52.080;5.312;2022-11-27T01:20:30;102328.0;;;7.26;100.0
34454;BME280;60061;52.080;5.312;2022-11-27T01:22:07;102330.0;;;7.07;100.0
34454;BME280;60061;52.080;5.312;2022-11-27T01:25:21;102325.0;;;7.21;100.0
34454;BME280;60061;52.080;5.312;2022-11-27T01:26:57;102318.0;;;7.19;100.0
34454;BME280;60061;52.080;5.312;2022-11-27T01:28:34;102330.0;;;6.77;100.0
34454;BME280;60061;52.080;5.312;2022-11-27T01:31:49;102321.0;;;7.06;100.0
34454;BME280;60061;52.080;5.312;2022-11-27T01:33:26;102322.0;;;7.11;100.0
34454;BME280;60061;52.080;5.312;2022-11-27T01:35:02;102320.0;;;7.14;100.0
34454;BME280;60061;52.080;5.312;2022-11-27T01:38:15;102318.0;;;7.16;100.0
34454;BME280;60061;52.080;5.312;2022-11-27T01:39:51;102313.0;;;7.21;100.0
34454;BME280;60061;52.080;5.312;2022-11-27T01:41:29;102310.0;;;7.28;100.0
34454;BME280;60061;52.080;5.312;2022-11-27T01:43:11;102306.0;;;7.06;100.0
34454;BME280;60061;52.080;5.312;2022-11-27T01:46:33;102293.0;;;7.25;100.0
34454;BME280;60061;52.080;5.312;2022-11-27T01:48:13;102286.0;;;7.26;100.0
34454;BME280;60061;52.080;5.312;2022-11-27T01:49:52;102290.0;;;7.15;100.0
34454;BME280;60061;52.080;5.312;2022-11-27T01:51:31;102283.0;;;7.26;100.0
34454;BME280;60061;52.080;5.312;2022-11-27T01:54:54;102282.0;;;7.17;100.0
34454;BME280;60061;52.080;5.312;2022-11-27T01:56:33;102273.0;;;7.08;100.0
34454;BME280;60061;52.080;5.312;2022-11-27T01:58:13;102262.0;;;7.11;100.0
34454;BME280;60061;52.080;5.312;2022-11-27T01:59:56;102252.0;;;7.05;100.0
34454;BME280;60061;52.080;5.312;2022-11-27T02:03:10;102249.0;;;7.07;100.0
34454;BME280;60061;52.080;5.312;2022-11-27T02:04:47;102255.0;;;6.81;100.0
34454;BME280;60061;52.080;5.312;2022-11-27T02:06:25;102247.0;;;7.12;100.0
34454;BME280;60061;52.080;5.312;2022-11-27T02:09:44;102252.0;;;7.09;100.0
34454;BME280;60061;52.080;5.312;2022-11-27T02:13:12;102247.0;;;7.19;100.0
34454;BME280;60061;52.080;5.312;2022-11-27T02:14:57;102240.0;;;7.16;100.0
34454;BME280;60061;52.080;5.312;2022-11-27T02:16:42;102236.0;;;7.1;100.0
34454;BME280;60061;52.080;5.312;2022-11-27T02:20:27;102233.0;;;7.07;100.0
34454;BME280;60061;52.080;5.312;2022-11-27T02:22:14;102234.0;;;7.19;100.0
34454;BME280;60061;52.080;5.312;2022-11-27T02:24:22;102233.0;;;7.01;100.0
34454;BME280;60061;52.080;5.312;2022-11-27T02:26:21;102234.0;;;7.06;100.0
34454;BME280;60061;52.080;5.312;2022-11-27T02:28:28;102230.0;;;7.14;100.0
34454;BME280;60061;52.080;5.312;2022-11-27T02:30:09;102228.0;;;6.95;100.0
34454;BME280;60061;52.080;5.312;2022-11-27T02:31:51;102230.0;;;6.88;100.0
34454;BME280;60061;52.080;5.312;2022-11-27T02:33:39;102230.0;;;6.79;100.0
34454;BME280;60061;52.080;5.312;2022-11-27T02:35:25;102234.0;;;6.9;100.0
34454;BME280;60061;52.080;5.312;2022-11-27T02:39:01;102242.0;;;6.61;100.0
34454;BME280;60061;52.080;5.312;2022-11-27T02:40:44;102250.0;;;6.76;100.0
34454;BME280;60061;52.080;5.312;2022-11-27T02:42:27;102244.0;;;6.9;100.0
34454;BME280;60061;52.080;5.312;2022-11-27T02:44:08;102248.0;;;6.62;100.0
34454;BME280;60061;52.080;5.312;2022-11-27T02:47:27;102242.0;;;6.98;100.0
34454;BME280;60061;52.080;5.312;2022-11-27T02:49:08;102241.0;;;6.94;100.0
34454;BME280;60061;52.080;5.312;2022-11-27T02:50:50;102234.0;;;6.74;100.0
34454;BME280;60061;52.080;5.312;2022-11-27T02:52:30;102224.0;;;6.66;100.0
34454;BME280;60061;52.080;5.312;2022-11-27T02:55:54;102231.0;;;6.72;100.0
34454;BME280;60061;52.080;5.312;2022-11-27T02:57:33;102234.0;;;6.8;100.0
34454;BME280;60061;52.080;5.312;2022-11-27T02:59:12;102235.0;;;6.79;100.0
34454;BME280;60061;52.080;5.312;2022-11-27T03:00:51;102232.0;;;6.96;100.0
34454;BME280;60061;52.080;5.312;2022-11-27T03:04:16;102232.0;;;6.95;100.0
34454;BME280;60061;52.080;5.312;2022-11-27T03:05:57;102230.0;;;6.73;100.0
34454;BME280;60061;52.080;5.312;2022-11-27T03:07:45;102225.0;;;6.87;100.0
34454;BME280;60061;52.080;5.312;2022-11-27T03:09:28;102227.0;;;6.86;100.0
34454;BME280;60061;52.080;5.312;2022-11-27T03:11:12;102230.0;;;6.61;100.0
34454;BME280;60061;52.080;5.312;2022-11-27T03:14:27;102228.0;;;6.7;100.0
34454;BME280;60061;52.080;5.312;2022-11-27T03:16:09;102219.0;;;6.82;100.0
34454;BME280;60061;52.080;5.312;2022-11-27T03:17:51;102224.0;;;6.72;100.0
34454;BME280;60061;52.080;5.312;2022-11-27T03:19:37;102224.0;;;6.85;100.0
34454;BME280;60061;52.080;5.312;2022-11-27T03:23:03;102230.0;;;6.71;100.0
34454;BME280;60061;52.080;5.312;2022-11-27T03:24:40;102230.0;;;6.82;100.0
34454;BME280;60061;52.080;5.312;2022-11-27T03:26:16;102236.0;;;6.94;100.0
34454;BME280;60061;52.080;5.312;2022-11-27T03:27:57;102237.0;;;6.79;100.0
34454;BME280;60061;52.080;5.312;2022-11-27T03:31:20;102231.0;;;6.85;100.0
34454;BME280;60061;52.080;5.312;2022-11-27T03:32:57;102230.0;;;6.98;100.0
34454;BME280;60061;52.080;5.312;2022-11-27T03:34:34;102224.0;;;6.74;100.0
34454;BME280;60061;52.080;5.312;2022-11-27T03:36:13;102222.0;;;6.74;100.0
34454;BME280;60061;52.080;5.312;2022-11-27T03:39:29;102214.0;;;6.92;100.0
34454;BME280;60061;52.080;5.312;2022-11-27T03:41:10;102216.0;;;6.63;100.0
34454;BME280;60061;52.080;5.312;2022-11-27T03:42:58;102216.0;;;6.76;100.0
34454;BME280;60061;52.080;5.312;2022-11-27T03:44:41;102212.0;;;6.65;100.0
34454;BME280;60061;52.080;5.312;2022-11-27T03:48:21;102205.0;;;6.84;100.0
34454;BME280;60061;52.080;5.312;2022-11-27T03:50:11;102202.0;;;6.77;100.0
34454;BME280;60061;52.080;5.312;2022-11-27T03:51:56;102200.0;;;6.72;100.0
34454;BME280;60061;52.080;5.312;2022-11-27T03:53:44;102192.0;;;6.83;100.0
34454;BME280;60061;52.080;5.312;2022-11-27T03:55:30;102195.0;;;6.88;100.0
34454;BME280;60061;52.080;5.312;2022-11-27T03:57:16;102198.0;;;6.56;100.0
34454;BME280;60061;52.080;5.312;2022-11-27T04:00:42;102193.0;;;6.74;100.0
34454;BME280;60061;52.080;5.312;2022-11-27T04:02:28;102193.0;;;6.84;100.0
34454;BME280;60061;52.080;5.312;2022-11-27T04:04:04;102182.0;;;6.72;100.0
34454;BME280;60061;52.080;5.312;2022-11-27T04:05:42;102190.0;;;6.57;100.0
34454;BME280;60061;52.080;5.312;2022-11-27T04:08:54;102202.0;;;6.69;100.0
34454;BME280;60061;52.080;5.312;2022-11-27T04:10:30;102206.0;;;6.5;100.0
34454;BME280;60061;52.080;5.312;2022-11-27T04:12:06;102208.0;;;6.6;100.0
34454;BME280;60061;52.080;5.312;2022-11-27T04:13:42;102203.0;;;6.49;100.0
34454;BME280;60061;52.080;5.312;2022-11-27T04:16:54;102206.0;;;6.71;100.0
34454;BME280;60061;52.080;5.312;2022-11-27T04:18:31;102206.0;;;6.75;100.0
34454;BME280;60061;52.080;5.312;2022-11-27T04:20:11;102211.0;;;6.48;100.0
34454;BME280;60061;52.080;5.312;2022-11-27T04:23:24;102205.0;;;6.69;100.0
34454;BME280;60061;52.080;5.312;2022-11-27T04:25:00;102208.0;;;6.68;100.0
34454;BME280;60061;52.080;5.312;2022-11-27T04:26:36;102209.0;;;6.41;100.0
34454;BME280;60061;52.080;5.312;2022-11-27T04:29:49;102201.0;;;6.64;100.0
34454;BME280;60061;52.080;5.312;2022-11-27T04:31:25;102205.0;;;6.5;100.0
34454;BME280;60061;52.080;5.312;2022-11-27T04:33:01;102196.0;;;6.74;100.0
34454;BME280;60061;52.080;5.312;2022-11-27T04:34:38;102198.0;;;6.42;100.0
34454;BME280;60061;52.080;5.312;2022-11-27T04:37:51;102186.0;;;6.6;100.0
34454;BME280;60061;52.080;5.312;2022-11-27T04:39:26;102184.0;;;6.75;100.0
34454;BME280;60061;52.080;5.312;2022-11-27T04:41:03;102180.0;;;6.78;100.0
34454;BME280;60061;52.080;5.312;2022-11-27T04:44:15;102174.0;;;6.69;100.0
34454;BME280;60061;52.080;5.312;2022-11-27T04:45:52;102168.0;;;6.79;100.0
34454;BME280;60061;52.080;5.312;2022-11-27T04:47:29;102165.0;;;6.76;100.0
34454;BME280;60061;52.080;5.312;2022-11-27T04:50:41;102166.0;;;6.82;100.0
34454;BME280;60061;52.080;5.312;2022-11-27T04:52:18;102165.0;;;6.66;100.0
34454;BME280;60061;52.080;5.312;2022-11-27T04:53:54;102163.0;;;6.62;100.0
34454;BME280;60061;52.080;5.312;2022-11-27T04:55:30;102168.0;;;6.62;100.0
34454;BME280;60061;52.080;5.312;2022-11-27T04:58:42;102165.0;;;6.57;100.0
34454;BME280;60061;52.080;5.312;2022-11-27T05:00:20;102162.0;;;6.51;100.0
34454;BME280;60061;52.080;5.312;2022-11-27T05:01:57;102161.0;;;6.48;100.0
34454;BME280;60061;52.080;5.312;2022-11-27T05:05:10;102152.0;;;6.57;100.0
34454;BME280;60061;52.080;5.312;2022-11-27T05:06:46;102149.0;;;6.42;100.0
34454;BME280;60061;52.080;5.312;2022-11-27T05:08:22;102147.0;;;6.62;100.0
34454;BME280;60061;52.080;5.312;2022-11-27T05:11:36;102144.0;;;6.61;100.0
34454;BME280;60061;52.080;5.312;2022-11-27T05:13:12;102135.0;;;6.43;100.0
34454;BME280;60061;52.080;5.312;2022-11-27T05:14:48;102143.0;;;6.62;100.0
34454;BME280;60061;52.080;5.312;2022-11-27T05:16:25;102127.0;;;6.4;100.0
34454;BME280;60061;52.080;5.312;2022-11-27T05:19:37;102132.0;;;6.38;100.0
34454;BME280;60061;52.080;5.312;2022-11-27T05:21:13;102130.0;;;6.53;100.0
34454;BME280;60061;52.080;5.312;2022-11-27T05:22:49;102123.0;;;6.45;100.0
34454;BME280;60061;52.080;5.312;2022-11-27T05:26:04;102121.0;;;6.51;100.0
34454;BME280;60061;52.080;5.312;2022-11-27T05:27:40;102124.0;;;6.59;100.0
34454;BME280;60061;52.080;5.312;2022-11-27T05:29:16;102120.0;;;6.49;100.0
34454;BME280;60061;52.080;5.312;2022-11-27T05:32:30;102126.0;;;6.68;100.0
34454;BME280;60061;52.080;5.312;2022-11-27T05:34:07;102121.0;;;6.63;100.0
34454;BME280;60061;52.080;5.312;2022-11-27T05:35:45;102116.0;;;6.42;100.0
34454;BME280;60061;52.080;5.312;2022-11-27T05:37:21;102114.0;;;6.54;100.0
34454;BME280;60061;52.080;5.312;2022-11-27T05:40:36;102116.0;;;6.61;100.0
34454;BME280;60061;52.080;5.312;2022-11-27T05:42:12;102115.0;;;6.55;100.0
34454;BME280;60061;52.080;5.312;2022-11-27T05:43:49;102112.0;;;6.66;100.0
34454;BME280;60061;52.080;5.312;2022-11-27T05:47:01;102113.0;;;6.58;100.0
34454;BME280;60061;52.080;5.312;2022-11-27T05:48:37;102113.0;;;6.4;100.0
34454;BME280;60061;52.080;5.312;2022-11-27T05:50:13;102114.0;;;6.54;100.0
34454;BME280;60061;52.080;5.312;2022-11-27T05:53:25;102106.0;;;6.72;100.0
34454;BME280;60061;52.080;5.312;2022-11-27T05:55:02;102106.0;;;6.75;100.0
34454;BME280;60061;52.080;5.312;2022-11-27T05:56:39;102105.0;;;6.58;100.0
34454;BME280;60061;52.080;5.312;2022-11-27T05:58:15;102101.0;;;6.47;100.0
34454;BME280;60061;52.080;5.312;2022-11-27T06:01:28;102101.0;;;6.62;100.0
34454;BME280;60061;52.080;5.312;2022-11-27T06:03:05;102105.0;;;6.77;100.0
34454;BME280;60061;52.080;5.312;2022-11-27T06:04:41;102103.0;;;6.78;100.0
34454;BME280;60061;52.080;5.312;2022-11-27T06:07:54;102105.0;;;6.53;100.0
34454;BME280;60061;52.080;5.312;2022-11-27T06:09:31;102100.0;;;6.73;100.0
34454;BME280;60061;52.080;5.312;2022-11-27T06:11:08;102097.0;;;6.71;100.0
34454;BME280;60061;52.080;5.312;2022-11-27T06:14:25;102092.0;;;6.82;100.0
34454;BME280;60061;52.080;5.312;2022-11-27T06:16:05;102097.0;;;6.82;100.0
34454;BME280;60061;52.080;5.312;2022-11-27T06:17:42;102094.0;;;6.74;100.0
34454;BME280;60061;52.080;5.312;2022-11-27T06:19:18;102091.0;;;6.46;100.0
34454;BME280;60061;52.080;5.312;2022-11-27T06:24:06;102092.0;;;6.81;100.0
34454;BME280;60061;52.080;5.312;2022-11-27T06:25:42;102088.0;;;6.52;100.0
34454;BME280;60061;52.080;5.312;2022-11-27T06:28:56;102082.0;;;6.77;100.0
34454;BME280;60061;52.080;5.312;2022-11-27T06:32:09;102084.0;;;6.69;100.0
34454;BME280;60061;52.080;5.312;2022-11-27T06:35:23;102082.0;;;6.83;100.0
34454;BME280;60061;52.080;5.312;2022-11-27T06:36:59;102082.0;;;6.43;100.0
34454;BME280;60061;52.080;5.312;2022-11-27T06:38:36;102082.0;;;6.54;100.0
34454;BME280;60061;52.080;5.312;2022-11-27T06:40:14;102080.0;;;6.72;100.0
34454;BME280;60061;52.080;5.312;2022-11-27T06:43:26;102076.0;;;6.42;100.0
34454;BME280;60061;52.080;5.312;2022-11-27T06:45:03;102066.0;;;6.56;100.0
34454;BME280;60061;52.080;5.312;2022-11-27T06:46:40;102069.0;;;6.64;100.0
34454;BME280;60061;52.080;5.312;2022-11-27T06:51:30;102062.0;;;6.62;100.0
34454;BME280;60061;52.080;5.312;2022-11-27T06:53:07;102067.0;;;6.53;100.0
34454;BME280;60061;52.080;5.312;2022-11-27T06:56:21;102061.0;;;6.67;100.0
34454;BME280;60061;52.080;5.312;2022-11-27T06:57:58;102067.0;;;6.48;100.0
34454;BME280;60061;52.080;5.312;2022-11-27T06:59:34;102065.0;;;6.71;100.0
34454;BME280;60061;52.080;5.312;2022-11-27T07:01:12;102064.0;;;6.62;100.0
34454;BME280;60061;52.080;5.312;2022-11-27T07:04:29;102065.0;;;6.75;100.0
34454;BME280;60061;52.080;5.312;2022-11-27T07:06:07;102061.0;;;6.61;100.0
34454;BME280;60061;52.080;5.312;2022-11-27T07:07:44;102057.0;;;6.7;100.0
34454;BME280;60061;52.080;5.312;2022-11-27T07:11:00;102047.0;;;6.74;100.0
34454;BME280;60061;52.080;5.312;2022-11-27T07:12:36;102046.0;;;6.76;100.0
34454;BME280;60061;52.080;5.312;2022-11-27T07:14:13;102038.0;;;6.62;100.0
34454;BME280;60061;52.080;5.312;2022-11-27T07:15:49;102036.0;;;6.44;100.0
34454;BME280;60061;52.080;5.312;2022-11-27T07:19:03;102038.0;;;6.7;100.0
34454;BME280;60061;52.080;5.312;2022-11-27T07:20:40;102033.0;;;6.48;100.0
34454;BME280;60061;52.080;5.312;2022-11-27T07:22:16;102035.0;;;6.41;100.0
34454;BME280;60061;52.080;5.312;2022-11-27T07:25:30;102030.0;;;6.73;100.0
34454;BME280;60061;52.080;5.312;2022-11-27T07:27:06;102024.0;;;6.69;100.0
34454;BME280;60061;52.080;5.312;2022-11-27T07:28:43;102017.0;;;6.66;100.0
34454;BME280;60061;52.080;5.312;2022-11-27T07:30:20;102009.0;;;6.77;100.0
34454;BME280;60061;52.080;5.312;2022-11-27T07:33:33;102007.0;;;6.75;100.0
34454;BME280;60061;52.080;5.312;2022-11-27T07:35:09;102009.0;;;6.7;100.0
34454;BME280;60061;52.080;5.312;2022-11-27T07:36:45;102005.0;;;6.45;100.0
34454;BME280;60061;52.080;5.312;2022-11-27T07:39:57;102000.0;;;6.67;100.0
34454;BME280;60061;52.080;5.312;2022-11-27T07:41:35;101999.0;;;6.63;100.0
34454;BME280;60061;52.080;5.312;2022-11-27T07:43:11;101994.0;;;6.59;100.0
34454;BME280;60061;52.080;5.312;2022-11-27T07:46:24;101997.0;;;6.63;100.0
34454;BME280;60061;52.080;5.312;2022-11-27T07:48:01;101996.0;;;6.53;100.0
34454;BME280;60061;52.080;5.312;2022-11-27T07:49:37;102000.0;;;6.47;100.0
34454;BME280;60061;52.080;5.312;2022-11-27T07:51:15;102005.0;;;6.67;100.0
34454;BME280;60061;52.080;5.312;2022-11-27T07:54:29;102001.0;;;6.69;100.0
34454;BME280;60061;52.080;5.312;2022-11-27T07:56:08;102000.0;;;6.4;100.0
34454;BME280;60061;52.080;5.312;2022-11-27T07:57:48;102002.0;;;6.55;100.0
34454;BME280;60061;52.080;5.312;2022-11-27T08:01:04;101995.0;;;6.66;100.0
34454;BME280;60061;52.080;5.312;2022-11-27T08:02:41;102000.0;;;6.56;100.0
34454;BME280;60061;52.080;5.312;2022-11-27T08:04:19;101998.0;;;6.53;100.0
34454;BME280;60061;52.080;5.312;2022-11-27T08:05:56;101998.0;;;6.73;100.0
34454;BME280;60061;52.080;5.312;2022-11-27T08:09:08;101993.0;;;6.51;100.0
34454;BME280;60061;52.080;5.312;2022-11-27T08:10:44;101990.0;;;6.68;100.0
34454;BME280;60061;52.080;5.312;2022-11-27T08:12:22;101986.0;;;6.6;100.0
34454;BME280;60061;52.080;5.312;2022-11-27T08:15:38;101982.0;;;6.74;100.0
34454;BME280;60061;52.080;5.312;2022-11-27T08:17:14;101985.0;;;6.79;100.0
34454;BME280;60061;52.080;5.312;2022-11-27T08:18:51;101984.0;;;6.39;100.0
34454;BME280;60061;52.080;5.312;2022-11-27T08:22:10;101982.0;;;6.72;100.0
34454;BME280;60061;52.080;5.312;2022-11-27T08:23:47;101978.0;;;6.41;100.0
34454;BME280;60061;52.080;5.312;2022-11-27T08:25:24;101976.0;;;6.39;100.0
34454;BME280;60061;52.080;5.312;2022-11-27T08:27:01;101982.0;;;6.47;100.0
34454;BME280;60061;52.080;5.312;2022-11-27T08:30:16;101978.0;;;6.51;100.0
34454;BME280;60061;52.080;5.312;2022-11-27T08:31:53;101977.0;;;6.33;100.0
34454;BME280;60061;52.080;5.312;2022-11-27T08:33:29;101980.0;;;6.7;100.0
34454;BME280;60061;52.080;5.312;2022-11-27T08:36:45;101983.0;;;6.69;100.0
34454;BME280;60061;52.080;5.312;2022-11-27T08:38:21;101986.0;;;6.47;100.0
34454;BME280;60061;52.080;5.312;2022-11-27T08:39:58;101980.0;;;6.5;100.0
34454;BME280;60061;52.080;5.312;2022-11-27T08:41:36;101986.0;;;6.77;100.0
34454;BME280;60061;52.080;5.312;2022-11-27T08:44:49;101980.0;;;6.55;100.0
34454;BME280;60061;52.080;5.312;2022-11-27T08:46:26;101976.0;;;6.58;100.0
34454;BME280;60061;52.080;5.312;2022-11-27T08:48:03;101973.0;;;6.7;100.0
34454;BME280;60061;52.080;5.312;2022-11-27T08:51:16;101968.0;;;6.74;100.0
34454;BME280;60061;52.080;5.312;2022-11-27T08:52:52;101974.0;;;6.65;100.0
34454;BME280;60061;52.080;5.312;2022-11-27T08:54:28;101980.0;;;6.84;100.0
34454;BME280;60061;52.080;5.312;2022-11-27T08:56:06;101985.0;;;6.92;100.0
34454;BME280;60061;52.080;5.312;2022-11-27T08:59:19;101984.0;;;6.63;100.0
34454;BME280;60061;52.080;5.312;2022-11-27T09:00:55;101986.0;;;6.63;100.0
34454;BME280;60061;52.080;5.312;2022-11-27T09:02:31;101982.0;;;6.83;100.0
34454;BME280;60061;52.080;5.312;2022-11-27T09:05:44;101983.0;;;6.84;100.0
34454;BME280;60061;52.080;5.312;2022-11-27T09:07:21;101987.0;;;6.72;100.0
34454;BME280;60061;52.080;5.312;2022-11-27T09:08:58;101981.0;;;6.91;100.0
34454;BME280;60061;52.080;5.312;2022-11-27T09:12:12;101978.0;;;6.81;100.0
34454;BME280;60061;52.080;5.312;2022-11-27T09:13:49;101978.0;;;6.97;100.0
34454;BME280;60061;52.080;5.312;2022-11-27T09:15:25;101975.0;;;6.97;100.0
34454;BME280;60061;52.080;5.312;2022-11-27T09:17:02;101980.0;;;6.95;100.0
34454;BME280;60061;52.080;5.312;2022-11-27T09:20:16;101973.0;;;7.04;100.0
34454;BME280;60061;52.080;5.312;2022-11-27T09:21:52;101973.0;;;6.91;100.0
34454;BME280;60061;52.080;5.312;2022-11-27T09:23:28;101974.0;;;6.99;100.0
34454;BME280;60061;52.080;5.312;2022-11-27T09:26:44;101968.0;;;7.11;100.0
34454;BME280;60061;52.080;5.312;2022-11-27T09:28:20;101974.0;;;7.16;100.0
34454;BME280;60061;52.080;5.312;2022-11-27T09:29:56;101973.0;;;6.98;100.0
34454;BME280;60061;52.080;5.312;2022-11-27T09:33:08;101970.0;;;7.12;100.0
34454;BME280;60061;52.080;5.312;2022-11-27T09:34:44;101964.0;;;6.95;100.0
34454;BME280;60061;52.080;5.312;2022-11-27T09:36:22;101963.0;;;7.18;100.0
34454;BME280;60061;52.080;5.312;2022-11-27T09:37:59;101962.0;;;7.08;100.0
34454;BME280;60061;52.080;5.312;2022-11-27T09:41:22;101961.0;;;7.07;100.0
34454;BME280;60061;52.080;5.312;2022-11-27T09:43:10;101959.0;;;7.28;100.0
34454;BME280;60061;52.080;5.312;2022-11-27T09:44:52;101955.0;;;7.26;100.0
34454;BME280;60061;52.080;5.312;2022-11-27T09:46:36;101956.0;;;7.22;100.0
34454;BME280;60061;52.080;5.312;2022-11-27T09:50:00;101957.0;;;7.11;100.0
34454;BME280;60061;52.080;5.312;2022-11-27T09:51:41;101953.0;;;7.15;100.0
34454;BME280;60061;52.080;5.312;2022-11-27T09:53:27;101944.0;;;7.29;100.0
34454;BME280;60061;52.080;5.312;2022-11-27T09:55:12;101940.0;;;7.18;100.0
34454;BME280;60061;52.080;5.312;2022-11-27T09:56:52;101936.0;;;7.31;100.0
34454;BME280;60061;52.080;5.312;2022-11-27T10:00:16;101936.0;;;7.36;100.0
34454;BME280;60061;52.080;5.312;2022-11-27T10:01:54;101938.0;;;7.33;100.0
34454;BME280;60061;52.080;5.312;2022-11-27T10:03:30;101936.0;;;7.35;100.0
34454;BME280;60061;52.080;5.312;2022-11-27T10:07:04;101932.0;;;7.44;100.0
34454;BME280;60061;52.080;5.312;2022-11-27T10:09:00;101928.0;;;7.39;100.0
34454;BME280;60061;52.080;5.312;2022-11-27T10:10:44;101926.0;;;7.43;100.0
34454;BME280;60061;52.080;5.312;2022-11-27T10:12:30;101930.0;;;7.29;100.0
34454;BME280;60061;52.080;5.312;2022-11-27T10:14:25;101920.0;;;7.43;100.0
34454;BME280;60061;52.080;5.312;2022-11-27T10:16:12;101919.0;;;7.26;100.0
34454;BME280;60061;52.080;5.312;2022-11-27T10:17:59;101920.0;;;7.28;100.0
34454;BME280;60061;52.080;5.312;2022-11-27T10:21:36;101914.0;;;7.47;100.0
34454;BME280;60061;52.080;5.312;2022-11-27T10:23:23;101909.0;;;7.44;100.0
34454;BME280;60061;52.080;5.312;2022-11-27T10:25:16;101902.0;;;7.41;100.0
34454;BME280;60061;52.080;5.312;2022-11-27T10:26:57;101910.0;;;7.22;100.0
34454;BME280;60061;52.080;5.312;2022-11-27T10:28:38;101909.0;;;7.13;100.0
34454;BME280;60061;52.080;5.312;2022-11-27T10:30:20;101912.0;;;7.43;100.0
34454;BME280;60061;52.080;5.312;2022-11-27T10:33:42;101907.0;;;7.13;100.0
34454;BME280;60061;52.080;5.312;2022-11-27T10:35:22;101900.0;;;7.49;100.0
34454;BME280;60061;52.080;5.312;2022-11-27T10:37:01;101894.0;;;7.53;100.0
34454;BME280;60061;52.080;5.312;2022-11-27T10:38:43;101890.0;;;7.47;100.0
34454;BME280;60061;52.080;5.312;2022-11-27T10:42:07;101892.0;;;7.31;100.0
34454;BME280;60061;52.080;5.312;2022-11-27T10:43:45;101888.0;;;7.44;100.0
34454;BME280;60061;52.080;5.312;2022-11-27T10:45:30;101887.0;;;7.59;100.0
34454;BME280;60061;52.080;5.312;2022-11-27T10:47:14;101887.0;;;7.72;100.0
34454;BME280;60061;52.080;5.312;2022-11-27T10:50:27;101881.0;;;7.7;100.0
34454;BME280;60061;52.080;5.312;2022-11-27T10:52:04;101876.0;;;7.73;100.0
34454;BME280;60061;52.080;5.312;2022-11-27T10:53:43;101873.0;;;7.67;100.0
34454;BME280;60061;52.080;5.312;2022-11-27T10:55:36;101871.0;;;7.76;100.0
34454;BME280;60061;52.080;5.312;2022-11-27T10:59:46;101869.0;;;7.7;100.0
34454;BME280;60061;52.080;5.312;2022-11-27T11:03:18;101862.0;;;7.72;100.0
34454;BME280;60061;52.080;5.312;2022-11-27T11:04:54;101857.0;;;7.79;100.0
34454;BME280;60061;52.080;5.312;2022-11-27T11:06:33;101855.0;;;7.66;100.0
34454;BME280;60061;52.080;5.312;2022-11-27T11:08:15;101852.0;;;7.63;100.0
34454;BME280;60061;52.080;5.312;2022-11-27T11:11:31;101849.0;;;7.91;100.0
34454;BME280;60061;52.080;5.312;2022-11-27T11:13:15;101846.0;;;7.87;100.0
34454;BME280;60061;52.080;5.312;2022-11-27T11:14:53;101845.0;;;7.75;100.0
34454;BME280;60061;52.080;5.312;2022-11-27T11:16:41;101844.0;;;7.94;100.0
34454;BME280;60061;52.080;5.312;2022-11-27T11:19:57;101837.0;;;7.86;100.0
34454;BME280;60061;52.080;5.312;2022-11-27T11:21:37;101833.0;;;8.0;100.0
34454;BME280;60061;52.080;5.312;2022-11-27T11:23:25;101841.0;;;7.97;100.0
34454;BME280;60061;52.080;5.312;2022-11-27T11:25:02;101832.0;;;8.08;100.0